sensor_id;sensor_type;location;lat;lon;timestamp;P1;durP1;ratioP1;P2;durP2;ratioP2
43088;SDS011;28709;52.030;5.652;2023-03-12T00:01:22;7.13;;;3.30;;
43088;SDS011;28709;52.030;5.652;2023-03-12T00:03:49;12.32;;;4.50;;
43088;SDS011;28709;52.030;5.652;2023-03-12T00:06:16;6.68;;;2.58;;
43088;SDS011;28709;52.030;5.652;2023-03-12T00:08:42;7.65;;;2.90;;
43088;SDS011;28709;52.030;5.652;2023-03-12T00:11:09;8.63;;;3.45;;
43088;SDS011;28709;52.030;5.652;2023-03-12T00:13:36;13.32;;;3.40;;
43088;SDS011;28709;52.030;5.652;2023-03-12T00:16:06;7.30;;;3.05;;
43088;SDS011;28709;52.030;5.652;2023-03-12T00:18:37;9.02;;;2.72;;
43088;SDS011;28709;52.030;5.652;2023-03-12T00:21:04;7.72;;;3.00;;
43088;SDS011;28709;52.030;5.652;2023-03-12T00:23:30;9.32;;;3.17;;
43088;SDS011;28709;52.030;5.652;2023-03-12T00:26:02;6.80;;;2.65;;
43088;SDS011;28709;52.030;5.652;2023-03-12T00:28:30;9.52;;;3.38;;
43088;SDS011;28709;52.030;5.652;2023-03-12T00:30:56;12.75;;;3.47;;
43088;SDS011;28709;52.030;5.652;2023-03-12T00:33:23;7.40;;;3.30;;
43088;SDS011;28709;52.030;5.652;2023-03-12T00:35:49;5.35;;;2.80;;
43088;SDS011;28709;52.030;5.652;2023-03-12T00:38:18;11.65;;;3.13;;
43088;SDS011;28709;52.030;5.652;2023-03-12T00:40:44;8.65;;;2.50;;
43088;SDS011;28709;52.030;5.652;2023-03-12T00:43:10;6.43;;;3.13;;
43088;SDS011;28709;52.030;5.652;2023-03-12T00:45:35;12.85;;;2.92;;
43088;SDS011;28709;52.030;5.652;2023-03-12T00:48:01;3.85;;;2.50;;
43088;SDS011;28709;52.030;5.652;2023-03-12T00:50:26;6.78;;;2.70;;
43088;SDS011;28709;52.030;5.652;2023-03-12T00:52:52;6.63;;;2.65;;
43088;SDS011;28709;52.030;5.652;2023-03-12T00:55:18;13.98;;;3.50;;
43088;SDS011;28709;52.030;5.652;2023-03-12T00:57:43;10.52;;;3.90;;
43088;SDS011;28709;52.030;5.652;2023-03-12T01:00:09;7.57;;;3.05;;
43088;SDS011;28709;52.030;5.652;2023-03-12T01:02:36;4.93;;;2.05;;
43088;SDS011;28709;52.030;5.652;2023-03-12T01:05:03;9.38;;;2.88;;
43088;SDS011;28709;52.030;5.652;2023-03-12T01:07:31;5.45;;;2.35;;
43088;SDS011;28709;52.030;5.652;2023-03-12T01:09:56;4.95;;;2.15;;
43088;SDS011;28709;52.030;5.652;2023-03-12T01:12:22;5.32;;;2.20;;
43088;SDS011;28709;52.030;5.652;2023-03-12T01:14:48;5.68;;;2.67;;
43088;SDS011;28709;52.030;5.652;2023-03-12T01:17:14;6.28;;;2.35;;
43088;SDS011;28709;52.030;5.652;2023-03-12T01:19:39;10.90;;;2.95;;
43088;SDS011;28709;52.030;5.652;2023-03-12T01:22:05;6.72;;;2.33;;
43088;SDS011;28709;52.030;5.652;2023-03-12T01:24:31;8.65;;;2.40;;
43088;SDS011;28709;52.030;5.652;2023-03-12T01:26:56;7.85;;;2.55;;
43088;SDS011;28709;52.030;5.652;2023-03-12T01:29:22;7.03;;;2.78;;
43088;SDS011;28709;52.030;5.652;2023-03-12T01:31:48;7.72;;;2.25;;
43088;SDS011;28709;52.030;5.652;2023-03-12T01:34:14;4.15;;;2.10;;
43088;SDS011;28709;52.030;5.652;2023-03-12T01:36:40;3.75;;;2.25;;
43088;SDS011;28709;52.030;5.652;2023-03-12T01:39:05;8.75;;;2.00;;
43088;SDS011;28709;52.030;5.652;2023-03-12T01:41:31;4.28;;;2.05;;
43088;SDS011;28709;52.030;5.652;2023-03-12T01:43:58;8.52;;;2.30;;
43088;SDS011;28709;52.030;5.652;2023-03-12T01:46:37;4.55;;;2.33;;
43088;SDS011;28709;52.030;5.652;2023-03-12T01:51:35;6.15;;;2.45;;
43088;SDS011;28709;52.030;5.652;2023-03-12T01:54:13;6.72;;;2.20;;
43088;SDS011;28709;52.030;5.652;2023-03-12T01:56:42;11.45;;;3.10;;
43088;SDS011;28709;52.030;5.652;2023-03-12T01:59:13;8.05;;;2.67;;
43088;SDS011;28709;52.030;5.652;2023-03-12T02:01:41;8.38;;;2.38;;
43088;SDS011;28709;52.030;5.652;2023-03-12T02:04:08;8.65;;;2.63;;
43088;SDS011;28709;52.030;5.652;2023-03-12T02:06:39;6.50;;;2.33;;
43088;SDS011;28709;52.030;5.652;2023-03-12T02:09:13;11.00;;;2.17;;
43088;SDS011;28709;52.030;5.652;2023-03-12T02:11:40;7.72;;;2.45;;
43088;SDS011;28709;52.030;5.652;2023-03-12T02:14:06;7.03;;;2.42;;
43088;SDS011;28709;52.030;5.652;2023-03-12T02:16:31;10.48;;;3.15;;
43088;SDS011;28709;52.030;5.652;2023-03-12T02:18:58;10.18;;;2.20;;
43088;SDS011;28709;52.030;5.652;2023-03-12T02:21:26;5.88;;;2.15;;
43088;SDS011;28709;52.030;5.652;2023-03-12T02:26:28;7.20;;;2.05;;
43088;SDS011;28709;52.030;5.652;2023-03-12T02:28:55;6.78;;;2.28;;
43088;SDS011;28709;52.030;5.652;2023-03-12T02:31:24;10.88;;;2.25;;
43088;SDS011;28709;52.030;5.652;2023-03-12T02:33:53;4.75;;;1.92;;
43088;SDS011;28709;52.030;5.652;2023-03-12T02:36:20;7.32;;;1.63;;
43088;SDS011;28709;52.030;5.652;2023-03-12T02:43:38;7.57;;;2.50;;
43088;SDS011;28709;52.030;5.652;2023-03-12T02:46:05;4.53;;;1.73;;
43088;SDS011;28709;52.030;5.652;2023-03-12T02:48:32;4.60;;;1.85;;
43088;SDS011;28709;52.030;5.652;2023-03-12T02:50:58;5.13;;;1.80;;
43088;SDS011;28709;52.030;5.652;2023-03-12T02:53:24;6.22;;;1.45;;
43088;SDS011;28709;52.030;5.652;2023-03-12T02:55:49;5.80;;;1.73;;
43088;SDS011;28709;52.030;5.652;2023-03-12T02:58:15;7.40;;;1.85;;
43088;SDS011;28709;52.030;5.652;2023-03-12T03:00:41;10.75;;;2.70;;
43088;SDS011;28709;52.030;5.652;2023-03-12T03:03:06;7.55;;;1.88;;
43088;SDS011;28709;52.030;5.652;2023-03-12T03:05:32;8.27;;;2.28;;
43088;SDS011;28709;52.030;5.652;2023-03-12T03:08:01;4.47;;;1.65;;
43088;SDS011;28709;52.030;5.652;2023-03-12T03:10:27;5.78;;;2.22;;
43088;SDS011;28709;52.030;5.652;2023-03-12T03:12:53;9.35;;;2.60;;
43088;SDS011;28709;52.030;5.652;2023-03-12T03:15:18;6.68;;;1.95;;
43088;SDS011;28709;52.030;5.652;2023-03-12T03:17:44;10.27;;;2.55;;
43088;SDS011;28709;52.030;5.652;2023-03-12T03:20:09;7.32;;;1.80;;
43088;SDS011;28709;52.030;5.652;2023-03-12T03:22:36;12.18;;;2.65;;
43088;SDS011;28709;52.030;5.652;2023-03-12T03:25:03;10.65;;;2.05;;
43088;SDS011;28709;52.030;5.652;2023-03-12T03:27:30;6.00;;;2.35;;
43088;SDS011;28709;52.030;5.652;2023-03-12T03:29:56;4.70;;;1.90;;
43088;SDS011;28709;52.030;5.652;2023-03-12T03:32:22;4.60;;;1.67;;
43088;SDS011;28709;52.030;5.652;2023-03-12T03:34:47;3.67;;;1.98;;
43088;SDS011;28709;52.030;5.652;2023-03-12T03:37:13;6.22;;;2.03;;
43088;SDS011;28709;52.030;5.652;2023-03-12T03:39:39;5.22;;;1.65;;
43088;SDS011;28709;52.030;5.652;2023-03-12T03:42:04;6.28;;;1.80;;
43088;SDS011;28709;52.030;5.652;2023-03-12T03:44:30;6.50;;;2.20;;
43088;SDS011;28709;52.030;5.652;2023-03-12T03:46:55;4.85;;;2.10;;
43088;SDS011;28709;52.030;5.652;2023-03-12T03:49:21;4.97;;;1.98;;
43088;SDS011;28709;52.030;5.652;2023-03-12T03:51:47;4.78;;;1.80;;
43088;SDS011;28709;52.030;5.652;2023-03-12T03:54:15;7.78;;;2.03;;
43088;SDS011;28709;52.030;5.652;2023-03-12T03:56:41;4.53;;;2.05;;
43088;SDS011;28709;52.030;5.652;2023-03-12T03:59:07;9.35;;;2.25;;
43088;SDS011;28709;52.030;5.652;2023-03-12T04:01:33;7.03;;;1.85;;
43088;SDS011;28709;52.030;5.652;2023-03-12T04:03:59;4.50;;;1.75;;
43088;SDS011;28709;52.030;5.652;2023-03-12T04:06:24;4.43;;;1.95;;
43088;SDS011;28709;52.030;5.652;2023-03-12T04:08:50;8.98;;;2.00;;
43088;SDS011;28709;52.030;5.652;2023-03-12T04:11:19;4.32;;;1.83;;
43088;SDS011;28709;52.030;5.652;2023-03-12T04:13:45;8.55;;;2.58;;
43088;SDS011;28709;52.030;5.652;2023-03-12T04:16:11;9.05;;;2.20;;
43088;SDS011;28709;52.030;5.652;2023-03-12T04:18:37;11.57;;;3.92;;
43088;SDS011;28709;52.030;5.652;2023-03-12T04:21:05;4.13;;;1.80;;
43088;SDS011;28709;52.030;5.652;2023-03-12T04:23:33;10.48;;;2.28;;
43088;SDS011;28709;52.030;5.652;2023-03-12T04:25:59;7.22;;;2.13;;
43088;SDS011;28709;52.030;5.652;2023-03-12T04:28:25;6.55;;;1.90;;
43088;SDS011;28709;52.030;5.652;2023-03-12T04:30:54;8.15;;;1.98;;
43088;SDS011;28709;52.030;5.652;2023-03-12T04:33:23;5.15;;;2.08;;
43088;SDS011;28709;52.030;5.652;2023-03-12T04:35:51;7.72;;;2.33;;
43088;SDS011;28709;52.030;5.652;2023-03-12T04:38:17;8.75;;;2.22;;
43088;SDS011;28709;52.030;5.652;2023-03-12T04:40:56;8.07;;;2.55;;
43088;SDS011;28709;52.030;5.652;2023-03-12T04:43:26;8.90;;;2.83;;
43088;SDS011;28709;52.030;5.652;2023-03-12T04:45:52;7.00;;;2.95;;
43088;SDS011;28709;52.030;5.652;2023-03-12T04:48:18;6.43;;;2.22;;
43088;SDS011;28709;52.030;5.652;2023-03-12T04:50:44;13.82;;;2.85;;
43088;SDS011;28709;52.030;5.652;2023-03-12T04:53:09;7.65;;;2.58;;
43088;SDS011;28709;52.030;5.652;2023-03-12T04:55:35;7.43;;;2.40;;
43088;SDS011;28709;52.030;5.652;2023-03-12T04:58:01;9.30;;;2.75;;
43088;SDS011;28709;52.030;5.652;2023-03-12T05:00:26;6.85;;;2.92;;
43088;SDS011;28709;52.030;5.652;2023-03-12T05:02:52;11.02;;;3.83;;
43088;SDS011;28709;52.030;5.652;2023-03-12T05:05:18;5.82;;;2.28;;
43088;SDS011;28709;52.030;5.652;2023-03-12T05:07:44;6.32;;;2.33;;
43088;SDS011;28709;52.030;5.652;2023-03-12T05:10:10;10.40;;;2.70;;
43088;SDS011;28709;52.030;5.652;2023-03-12T05:12:35;7.40;;;2.75;;
43088;SDS011;28709;52.030;5.652;2023-03-12T05:15:01;7.97;;;2.95;;
43088;SDS011;28709;52.030;5.652;2023-03-12T05:17:27;10.10;;;3.03;;
43088;SDS011;28709;52.030;5.652;2023-03-12T05:19:52;4.97;;;2.40;;
43088;SDS011;28709;52.030;5.652;2023-03-12T05:22:18;8.45;;;2.65;;
43088;SDS011;28709;52.030;5.652;2023-03-12T05:24:44;6.65;;;2.33;;
43088;SDS011;28709;52.030;5.652;2023-03-12T05:27:09;7.03;;;3.15;;
43088;SDS011;28709;52.030;5.652;2023-03-12T05:29:35;10.15;;;3.75;;
43088;SDS011;28709;52.030;5.652;2023-03-12T05:32:02;9.23;;;2.70;;
43088;SDS011;28709;52.030;5.652;2023-03-12T05:34:28;15.00;;;3.83;;
43088;SDS011;28709;52.030;5.652;2023-03-12T05:36:55;6.72;;;2.35;;
43088;SDS011;28709;52.030;5.652;2023-03-12T05:39:21;7.55;;;2.72;;
43088;SDS011;28709;52.030;5.652;2023-03-12T05:41:47;7.95;;;2.88;;
43088;SDS011;28709;52.030;5.652;2023-03-12T05:44:13;5.40;;;2.83;;
43088;SDS011;28709;52.030;5.652;2023-03-12T05:46:40;8.55;;;3.15;;
43088;SDS011;28709;52.030;5.652;2023-03-12T05:49:06;6.85;;;2.75;;
43088;SDS011;28709;52.030;5.652;2023-03-12T05:51:32;8.50;;;3.10;;
43088;SDS011;28709;52.030;5.652;2023-03-12T05:53:59;6.40;;;2.92;;
43088;SDS011;28709;52.030;5.652;2023-03-12T05:56:25;10.88;;;3.10;;
43088;SDS011;28709;52.030;5.652;2023-03-12T05:58:50;13.02;;;3.22;;
43088;SDS011;28709;52.030;5.652;2023-03-12T06:01:17;8.90;;;2.63;;
43088;SDS011;28709;52.030;5.652;2023-03-12T06:03:45;8.02;;;2.67;;
43088;SDS011;28709;52.030;5.652;2023-03-12T06:06:11;5.75;;;2.80;;
43088;SDS011;28709;52.030;5.652;2023-03-12T06:08:37;5.18;;;2.90;;
43088;SDS011;28709;52.030;5.652;2023-03-12T06:11:03;8.98;;;2.83;;
43088;SDS011;28709;52.030;5.652;2023-03-12T06:13:29;7.07;;;2.65;;
43088;SDS011;28709;52.030;5.652;2023-03-12T06:16:05;8.00;;;2.65;;
43088;SDS011;28709;52.030;5.652;2023-03-12T06:18:33;9.82;;;2.42;;
43088;SDS011;28709;52.030;5.652;2023-03-12T06:21:07;9.23;;;2.67;;
43088;SDS011;28709;52.030;5.652;2023-03-12T06:23:40;8.80;;;2.67;;
43088;SDS011;28709;52.030;5.652;2023-03-12T06:26:07;6.38;;;2.88;;
43088;SDS011;28709;52.030;5.652;2023-03-12T06:28:33;5.30;;;2.67;;
43088;SDS011;28709;52.030;5.652;2023-03-12T06:30:59;6.65;;;2.50;;
43088;SDS011;28709;52.030;5.652;2023-03-12T06:33:25;9.05;;;2.85;;
43088;SDS011;28709;52.030;5.652;2023-03-12T06:35:55;4.55;;;2.47;;
43088;SDS011;28709;52.030;5.652;2023-03-12T06:38:24;13.90;;;3.20;;
43088;SDS011;28709;52.030;5.652;2023-03-12T06:40:54;12.70;;;2.75;;
43088;SDS011;28709;52.030;5.652;2023-03-12T06:43:21;11.30;;;2.95;;
43088;SDS011;28709;52.030;5.652;2023-03-12T06:45:47;10.00;;;2.80;;
43088;SDS011;28709;52.030;5.652;2023-03-12T06:48:13;11.23;;;3.38;;
43088;SDS011;28709;52.030;5.652;2023-03-12T06:50:39;10.45;;;3.08;;
43088;SDS011;28709;52.030;5.652;2023-03-12T06:53:04;6.50;;;3.10;;
43088;SDS011;28709;52.030;5.652;2023-03-12T06:55:30;9.15;;;3.35;;
43088;SDS011;28709;52.030;5.652;2023-03-12T06:57:55;11.20;;;3.10;;
43088;SDS011;28709;52.030;5.652;2023-03-12T07:00:21;21.98;;;5.00;;
43088;SDS011;28709;52.030;5.652;2023-03-12T07:02:47;7.22;;;3.60;;
43088;SDS011;28709;52.030;5.652;2023-03-12T07:05:12;11.00;;;3.25;;
43088;SDS011;28709;52.030;5.652;2023-03-12T07:07:38;10.35;;;3.35;;
43088;SDS011;28709;52.030;5.652;2023-03-12T07:10:04;9.45;;;3.40;;
43088;SDS011;28709;52.030;5.652;2023-03-12T07:12:30;8.00;;;3.78;;
43088;SDS011;28709;52.030;5.652;2023-03-12T07:14:59;7.95;;;3.55;;
43088;SDS011;28709;52.030;5.652;2023-03-12T07:17:25;9.98;;;3.70;;
43088;SDS011;28709;52.030;5.652;2023-03-12T07:19:51;9.50;;;3.47;;
43088;SDS011;28709;52.030;5.652;2023-03-12T07:22:16;7.97;;;3.25;;
43088;SDS011;28709;52.030;5.652;2023-03-12T07:24:42;9.80;;;3.78;;
43088;SDS011;28709;52.030;5.652;2023-03-12T07:27:08;19.95;;;4.50;;
43088;SDS011;28709;52.030;5.652;2023-03-12T07:29:33;9.43;;;3.80;;
43088;SDS011;28709;52.030;5.652;2023-03-12T07:31:59;18.55;;;3.42;;
43088;SDS011;28709;52.030;5.652;2023-03-12T07:34:25;8.52;;;3.67;;
43088;SDS011;28709;52.030;5.652;2023-03-12T07:36:50;8.85;;;4.32;;
43088;SDS011;28709;52.030;5.652;2023-03-12T07:39:16;8.50;;;3.60;;
43088;SDS011;28709;52.030;5.652;2023-03-12T07:41:43;17.45;;;4.55;;
43088;SDS011;28709;52.030;5.652;2023-03-12T07:44:08;14.30;;;4.00;;
43088;SDS011;28709;52.030;5.652;2023-03-12T07:46:34;7.65;;;3.72;;
43088;SDS011;28709;52.030;5.652;2023-03-12T07:49:00;13.73;;;4.82;;
43088;SDS011;28709;52.030;5.652;2023-03-12T07:51:25;15.38;;;5.38;;
43088;SDS011;28709;52.030;5.652;2023-03-12T07:53:51;16.08;;;4.47;;
43088;SDS011;28709;52.030;5.652;2023-03-12T07:56:17;9.73;;;4.07;;
43088;SDS011;28709;52.030;5.652;2023-03-12T07:58:43;11.55;;;4.30;;
43088;SDS011;28709;52.030;5.652;2023-03-12T08:01:08;12.38;;;4.18;;
43088;SDS011;28709;52.030;5.652;2023-03-12T08:03:34;11.48;;;5.38;;
43088;SDS011;28709;52.030;5.652;2023-03-12T08:06:01;8.85;;;4.90;;
43088;SDS011;28709;52.030;5.652;2023-03-12T08:08:28;11.93;;;5.13;;
43088;SDS011;28709;52.030;5.652;2023-03-12T08:10:55;13.98;;;5.45;;
43088;SDS011;28709;52.030;5.652;2023-03-12T08:13:21;15.57;;;6.13;;
43088;SDS011;28709;52.030;5.652;2023-03-12T08:15:48;11.25;;;4.97;;
43088;SDS011;28709;52.030;5.652;2023-03-12T08:18:15;14.45;;;5.60;;
43088;SDS011;28709;52.030;5.652;2023-03-12T08:20:42;15.30;;;5.20;;
43088;SDS011;28709;52.030;5.652;2023-03-12T08:23:08;11.23;;;4.90;;
43088;SDS011;28709;52.030;5.652;2023-03-12T08:25:33;11.60;;;5.15;;
43088;SDS011;28709;52.030;5.652;2023-03-12T08:28:00;12.95;;;5.05;;
43088;SDS011;28709;52.030;5.652;2023-03-12T08:30:30;9.55;;;5.20;;
43088;SDS011;28709;52.030;5.652;2023-03-12T08:32:56;16.17;;;6.28;;
43088;SDS011;28709;52.030;5.652;2023-03-12T08:35:21;14.15;;;4.75;;
43088;SDS011;28709;52.030;5.652;2023-03-12T08:37:47;18.80;;;5.93;;
43088;SDS011;28709;52.030;5.652;2023-03-12T08:40:13;11.15;;;5.45;;
43088;SDS011;28709;52.030;5.652;2023-03-12T08:42:39;8.63;;;5.25;;
43088;SDS011;28709;52.030;5.652;2023-03-12T08:45:06;8.98;;;5.47;;
43088;SDS011;28709;52.030;5.652;2023-03-12T08:47:33;14.95;;;6.03;;
43088;SDS011;28709;52.030;5.652;2023-03-12T08:49:59;13.23;;;5.75;;
43088;SDS011;28709;52.030;5.652;2023-03-12T08:52:25;10.95;;;5.65;;
43088;SDS011;28709;52.030;5.652;2023-03-12T08:54:50;9.73;;;6.57;;
43088;SDS011;28709;52.030;5.652;2023-03-12T08:57:16;11.85;;;6.82;;
43088;SDS011;28709;52.030;5.652;2023-03-12T08:59:42;11.57;;;6.80;;
43088;SDS011;28709;52.030;5.652;2023-03-12T09:02:09;12.43;;;5.85;;
43088;SDS011;28709;52.030;5.652;2023-03-12T09:04:36;10.98;;;6.38;;
43088;SDS011;28709;52.030;5.652;2023-03-12T09:07:02;11.65;;;6.60;;
43088;SDS011;28709;52.030;5.652;2023-03-12T09:09:28;12.43;;;6.10;;
43088;SDS011;28709;52.030;5.652;2023-03-12T09:11:53;9.55;;;6.63;;
43088;SDS011;28709;52.030;5.652;2023-03-12T09:14:20;13.27;;;6.30;;
43088;SDS011;28709;52.030;5.652;2023-03-12T09:16:45;13.38;;;7.47;;
43088;SDS011;28709;52.030;5.652;2023-03-12T09:19:11;12.38;;;6.07;;
43088;SDS011;28709;52.030;5.652;2023-03-12T09:21:37;12.85;;;7.25;;
43088;SDS011;28709;52.030;5.652;2023-03-12T09:24:04;17.17;;;7.70;;
43088;SDS011;28709;52.030;5.652;2023-03-12T09:26:30;11.18;;;6.88;;
43088;SDS011;28709;52.030;5.652;2023-03-12T09:28:56;13.77;;;7.00;;
43088;SDS011;28709;52.030;5.652;2023-03-12T09:31:22;14.80;;;7.80;;
43088;SDS011;28709;52.030;5.652;2023-03-12T09:33:48;10.23;;;6.68;;
43088;SDS011;28709;52.030;5.652;2023-03-12T09:36:15;13.20;;;7.13;;
43088;SDS011;28709;52.030;5.652;2023-03-12T09:38:40;12.65;;;7.72;;
43088;SDS011;28709;52.030;5.652;2023-03-12T09:41:11;16.65;;;9.68;;
43088;SDS011;28709;52.030;5.652;2023-03-12T09:43:46;20.30;;;10.55;;
43088;SDS011;28709;52.030;5.652;2023-03-12T09:46:21;13.10;;;7.60;;
43088;SDS011;28709;52.030;5.652;2023-03-12T09:48:50;16.55;;;8.35;;
43088;SDS011;28709;52.030;5.652;2023-03-12T09:51:19;13.23;;;8.38;;
43088;SDS011;28709;52.030;5.652;2023-03-12T09:54:06;16.17;;;8.82;;
43088;SDS011;28709;52.030;5.652;2023-03-12T09:56:37;13.73;;;8.75;;
43088;SDS011;28709;52.030;5.652;2023-03-12T09:59:03;16.17;;;9.90;;
43088;SDS011;28709;52.030;5.652;2023-03-12T10:01:51;14.98;;;9.43;;
43088;SDS011;28709;52.030;5.652;2023-03-12T10:15:43;20.80;;;10.80;;
43088;SDS011;28709;52.030;5.652;2023-03-12T10:31:05;23.35;;;13.30;;
43088;SDS011;28709;52.030;5.652;2023-03-12T10:33:55;22.98;;;13.70;;
43088;SDS011;28709;52.030;5.652;2023-03-12T10:36:24;23.75;;;12.75;;
43088;SDS011;28709;52.030;5.652;2023-03-12T10:38:57;29.90;;;14.45;;
43088;SDS011;28709;52.030;5.652;2023-03-12T10:41:24;28.00;;;14.20;;
43088;SDS011;28709;52.030;5.652;2023-03-12T10:43:53;22.00;;;12.75;;
43088;SDS011;28709;52.030;5.652;2023-03-12T10:46:29;28.55;;;13.52;;
43088;SDS011;28709;52.030;5.652;2023-03-12T10:49:21;26.83;;;14.68;;
43088;SDS011;28709;52.030;5.652;2023-03-12T10:54:32;17.83;;;11.05;;
43088;SDS011;28709;52.030;5.652;2023-03-12T10:57:00;29.48;;;14.00;;
43088;SDS011;28709;52.030;5.652;2023-03-12T10:59:28;24.23;;;12.77;;
43088;SDS011;28709;52.030;5.652;2023-03-12T11:01:56;19.90;;;12.43;;
43088;SDS011;28709;52.030;5.652;2023-03-12T11:04:26;24.08;;;13.90;;
43088;SDS011;28709;52.030;5.652;2023-03-12T11:09:38;24.35;;;12.85;;
43088;SDS011;28709;52.030;5.652;2023-03-12T11:14:50;28.08;;;13.65;;
43088;SDS011;28709;52.030;5.652;2023-03-12T11:17:19;25.70;;;13.55;;
43088;SDS011;28709;52.030;5.652;2023-03-12T11:22:25;25.10;;;13.95;;
43088;SDS011;28709;52.030;5.652;2023-03-12T11:24:54;22.35;;;10.65;;
43088;SDS011;28709;52.030;5.652;2023-03-12T11:29:56;21.25;;;10.82;;
43088;SDS011;28709;52.030;5.652;2023-03-12T11:32:37;21.85;;;10.50;;
43088;SDS011;28709;52.030;5.652;2023-03-12T11:35:11;21.17;;;10.70;;
43088;SDS011;28709;52.030;5.652;2023-03-12T11:57:13;25.27;;;7.53;;
43088;SDS011;28709;52.030;5.652;2023-03-12T12:05:34;18.42;;;7.38;;
43088;SDS011;28709;52.030;5.652;2023-03-12T12:08:22;32.58;;;8.63;;
43088;SDS011;28709;52.030;5.652;2023-03-12T12:11:18;27.83;;;8.35;;
43088;SDS011;28709;52.030;5.652;2023-03-12T12:14:14;33.30;;;8.48;;
43088;SDS011;28709;52.030;5.652;2023-03-12T12:19:20;42.08;;;9.13;;
43088;SDS011;28709;52.030;5.652;2023-03-12T12:22:01;29.42;;;6.57;;
43088;SDS011;28709;52.030;5.652;2023-03-12T12:28:22;31.30;;;6.75;;
43088;SDS011;28709;52.030;5.652;2023-03-12T12:30:54;19.33;;;5.47;;
43088;SDS011;28709;52.030;5.652;2023-03-12T12:33:39;23.55;;;5.18;;
43088;SDS011;28709;52.030;5.652;2023-03-12T12:36:15;26.67;;;6.25;;
43088;SDS011;28709;52.030;5.652;2023-03-12T12:38:43;41.13;;;7.53;;
43088;SDS011;28709;52.030;5.652;2023-03-12T12:41:14;19.17;;;5.93;;
43088;SDS011;28709;52.030;5.652;2023-03-12T12:43:45;25.00;;;6.88;;
43088;SDS011;28709;52.030;5.652;2023-03-12T12:46:15;30.58;;;6.97;;
43088;SDS011;28709;52.030;5.652;2023-03-12T12:48:54;33.33;;;7.65;;
43088;SDS011;28709;52.030;5.652;2023-03-12T12:51:28;37.80;;;7.47;;
43088;SDS011;28709;52.030;5.652;2023-03-12T12:57:05;37.70;;;10.55;;
43088;SDS011;28709;52.030;5.652;2023-03-12T13:02:39;38.05;;;9.45;;
43088;SDS011;28709;52.030;5.652;2023-03-12T13:07:50;50.35;;;12.30;;
43088;SDS011;28709;52.030;5.652;2023-03-12T13:12:57;43.13;;;11.55;;
43088;SDS011;28709;52.030;5.652;2023-03-12T13:20:39;35.90;;;7.13;;
43088;SDS011;28709;52.030;5.652;2023-03-12T13:23:49;40.33;;;6.20;;
43088;SDS011;28709;52.030;5.652;2023-03-12T13:31:45;24.70;;;4.88;;
43088;SDS011;28709;52.030;5.652;2023-03-12T13:36:43;32.13;;;5.13;;
43088;SDS011;28709;52.030;5.652;2023-03-12T13:47:01;31.95;;;6.55;;
43088;SDS011;28709;52.030;5.652;2023-03-12T13:49:39;33.00;;;6.40;;
43088;SDS011;28709;52.030;5.652;2023-03-12T13:54:39;48.33;;;11.27;;
43088;SDS011;28709;52.030;5.652;2023-03-12T13:57:11;53.92;;;12.60;;
43088;SDS011;28709;52.030;5.652;2023-03-12T13:59:57;47.95;;;10.55;;
43088;SDS011;28709;52.030;5.652;2023-03-12T14:02:26;36.03;;;10.80;;
43088;SDS011;28709;52.030;5.652;2023-03-12T14:05:05;38.15;;;6.43;;
43088;SDS011;28709;52.030;5.652;2023-03-12T14:07:55;45.58;;;7.38;;
43088;SDS011;28709;52.030;5.652;2023-03-12T14:13:14;34.95;;;8.55;;
43088;SDS011;28709;52.030;5.652;2023-03-12T14:18:37;39.00;;;6.07;;
43088;SDS011;28709;52.030;5.652;2023-03-12T14:21:07;33.38;;;6.85;;
43088;SDS011;28709;52.030;5.652;2023-03-12T14:23:38;26.98;;;4.32;;
43088;SDS011;28709;52.030;5.652;2023-03-12T14:26:16;25.13;;;5.03;;
43088;SDS011;28709;52.030;5.652;2023-03-12T14:28:51;19.77;;;4.55;;
43088;SDS011;28709;52.030;5.652;2023-03-12T14:31:22;38.63;;;7.13;;
43088;SDS011;28709;52.030;5.652;2023-03-12T14:34:00;35.03;;;5.80;;
43088;SDS011;28709;52.030;5.652;2023-03-12T14:36:44;31.60;;;4.95;;
43088;SDS011;28709;52.030;5.652;2023-03-12T14:39:32;28.20;;;4.80;;
43088;SDS011;28709;52.030;5.652;2023-03-12T14:42:22;28.52;;;4.05;;
43088;SDS011;28709;52.030;5.652;2023-03-12T14:45:01;23.10;;;4.97;;
43088;SDS011;28709;52.030;5.652;2023-03-12T14:47:40;22.55;;;5.13;;
43088;SDS011;28709;52.030;5.652;2023-03-12T14:50:15;32.13;;;5.65;;
43088;SDS011;28709;52.030;5.652;2023-03-12T14:52:44;22.40;;;3.85;;
43088;SDS011;28709;52.030;5.652;2023-03-12T14:55:14;25.95;;;4.80;;
43088;SDS011;28709;52.030;5.652;2023-03-12T14:57:44;24.38;;;5.00;;
43088;SDS011;28709;52.030;5.652;2023-03-12T15:00:20;24.52;;;3.80;;
43088;SDS011;28709;52.030;5.652;2023-03-12T15:02:49;25.35;;;4.35;;
43088;SDS011;28709;52.030;5.652;2023-03-12T15:05:17;23.20;;;5.00;;
43088;SDS011;28709;52.030;5.652;2023-03-12T15:07:45;25.08;;;5.03;;
43088;SDS011;28709;52.030;5.652;2023-03-12T15:10:17;23.05;;;5.60;;
43088;SDS011;28709;52.030;5.652;2023-03-12T15:12:49;29.17;;;6.13;;
43088;SDS011;28709;52.030;5.652;2023-03-12T15:18:04;32.88;;;6.22;;
43088;SDS011;28709;52.030;5.652;2023-03-12T15:20:32;25.40;;;4.30;;
43088;SDS011;28709;52.030;5.652;2023-03-12T15:22:59;20.42;;;4.25;;
43088;SDS011;28709;52.030;5.652;2023-03-12T15:25:26;24.80;;;4.13;;
43088;SDS011;28709;52.030;5.652;2023-03-12T15:27:59;22.48;;;4.20;;
43088;SDS011;28709;52.030;5.652;2023-03-12T15:30:28;20.67;;;4.05;;
43088;SDS011;28709;52.030;5.652;2023-03-12T15:33:08;28.33;;;5.07;;
43088;SDS011;28709;52.030;5.652;2023-03-12T15:35:36;24.92;;;3.83;;
43088;SDS011;28709;52.030;5.652;2023-03-12T15:38:26;25.55;;;4.40;;
43088;SDS011;28709;52.030;5.652;2023-03-12T15:40:52;29.65;;;5.15;;
43088;SDS011;28709;52.030;5.652;2023-03-12T15:43:21;30.33;;;4.97;;
43088;SDS011;28709;52.030;5.652;2023-03-12T15:45:57;27.83;;;4.05;;
43088;SDS011;28709;52.030;5.652;2023-03-12T15:48:32;28.00;;;5.65;;
43088;SDS011;28709;52.030;5.652;2023-03-12T15:51:00;31.02;;;5.45;;
43088;SDS011;28709;52.030;5.652;2023-03-12T15:53:32;31.35;;;5.07;;
43088;SDS011;28709;52.030;5.652;2023-03-12T15:58:37;36.65;;;6.55;;
43088;SDS011;28709;52.030;5.652;2023-03-12T16:01:08;21.48;;;3.97;;
43088;SDS011;28709;52.030;5.652;2023-03-12T16:03:39;22.63;;;3.85;;
43088;SDS011;28709;52.030;5.652;2023-03-12T16:06:10;21.98;;;4.60;;
43088;SDS011;28709;52.030;5.652;2023-03-12T16:08:45;25.70;;;4.03;;
43088;SDS011;28709;52.030;5.652;2023-03-12T16:11:15;23.90;;;4.60;;
43088;SDS011;28709;52.030;5.652;2023-03-12T16:13:44;31.48;;;3.97;;
43088;SDS011;28709;52.030;5.652;2023-03-12T16:16:11;19.65;;;3.58;;
43088;SDS011;28709;52.030;5.652;2023-03-12T16:18:38;32.13;;;4.40;;
43088;SDS011;28709;52.030;5.652;2023-03-12T16:21:04;21.17;;;2.88;;
43088;SDS011;28709;52.030;5.652;2023-03-12T16:23:31;22.60;;;3.90;;
43088;SDS011;28709;52.030;5.652;2023-03-12T16:25:56;24.88;;;4.75;;
43088;SDS011;28709;52.030;5.652;2023-03-12T16:28:23;30.90;;;4.50;;
43088;SDS011;28709;52.030;5.652;2023-03-12T16:30:49;30.00;;;3.97;;
43088;SDS011;28709;52.030;5.652;2023-03-12T16:33:16;23.70;;;4.40;;
43088;SDS011;28709;52.030;5.652;2023-03-12T16:35:44;28.13;;;5.70;;
43088;SDS011;28709;52.030;5.652;2023-03-12T16:38:10;29.10;;;4.50;;
43088;SDS011;28709;52.030;5.652;2023-03-12T16:40:36;39.22;;;6.97;;
43088;SDS011;28709;52.030;5.652;2023-03-12T16:43:05;30.23;;;4.28;;
43088;SDS011;28709;52.030;5.652;2023-03-12T16:45:32;30.80;;;4.95;;
43088;SDS011;28709;52.030;5.652;2023-03-12T16:48:01;30.70;;;5.82;;
43088;SDS011;28709;52.030;5.652;2023-03-12T16:50:29;33.78;;;4.97;;
43088;SDS011;28709;52.030;5.652;2023-03-12T16:52:54;23.65;;;4.38;;